Time;durP1;ratioP1;P1;durP2;ratioP2;P2;SDS_P1;SDS_P2;PMS_P1;PMS_P2;Temp;Humidity;BMP_temperature;BMP_pressure;BME280_temperature;BME280_humidity;BME280_pressure;Samples;Min_cycle;Max_cycle;Signal;HPM_P1;HPM_P2
2022/09/19 00:00:33;;;;;;;1.52;1.08;;;;;;;7.29;62.82;94868.84;5050621;28;20049;-72
2022/09/19 00:02:59;;;;;;;1.90;0.95;;;;;;;7.37;62.71;94866.56;5066212;28;20025;-73
2022/09/19 00:05:24;;;;;;;3.05;1.10;;;;;;;7.43;62.23;94875.63;5068330;28;20071;-72
2022/09/19 00:07:50;;;;;;;2.47;1.10;;;;;;;7.36;61.79;94870.09;5083653;28;20039;-73
2022/09/19 00:10:15;;;;;;;1.58;0.95;;;;;;;7.43;61.29;94873.06;5086490;28;20873;-73
2022/09/19 00:12:41;;;;;;;1.30;0.90;;;;;;;7.47;60.42;94866.75;5081187;28;20028;-76
2022/09/19 00:15:07;;;;;;;1.50;0.95;;;;;;;7.43;62.95;94869.66;5083962;28;20397;-75
2022/09/19 00:17:33;;;;;;;2.15;1.10;;;;;;;7.32;63.39;94867.81;5067268;28;20461;-75
2022/09/19 00:19:58;;;;;;;1.80;1.10;;;;;;;7.37;62.85;94876.88;5084489;28;20032;-72
2022/09/19 00:22:24;;;;;;;2.50;1.17;;;;;;;7.24;61.72;94864.91;5080705;28;20488;-72
2022/09/19 00:24:49;;;;;;;1.30;0.85;;;;;;;7.11;61.73;94847.69;5086390;28;20055;-72
2022/09/19 00:27:22;;;;;;;2.22;1.00;;;;;;;7.19;61.72;94859.25;5083066;28;20032;-72
2022/09/19 00:29:48;;;;;;;2.63;1.05;;;;;;;7.16;62.41;94868.88;5065828;28;20036;-72
2022/09/19 00:32:14;;;;;;;1.83;1.10;;;;;;;7.25;62.46;94869.19;5053325;28;20032;-72
2022/09/19 00:34:47;;;;;;;3.30;1.23;;;;;;;7.33;61.90;94866.88;5055370;28;20039;-72
2022/09/19 00:37:13;;;;;;;2.20;1.33;;;;;;;7.00;63.62;94873.44;5070358;28;20055;-72
2022/09/19 00:39:39;;;;;;;3.25;1.60;;;;;;;6.96;63.91;94874.53;5085446;28;20063;-72
2022/09/19 00:42:04;;;;;;;2.42;1.50;;;;;;;6.98;64.42;94877.88;5087383;28;20032;-72
2022/09/19 00:44:30;;;;;;;2.20;1.60;;;;;;;6.92;63.95;94886.03;5088880;28;20094;-72
2022/09/19 00:47:05;;;;;;;4.78;1.63;;;;;;;6.82;64.44;94879.81;5088105;28;20028;-72
2022/09/19 00:49:32;;;;;;;4.43;1.58;;;;;;;6.75;65.11;94873.44;5051871;28;20046;-72
2022/09/19 00:52:03;;;;;;;2.30;1.40;;;;;;;6.62;65.04;94871.66;5071132;28;20031;-72
2022/09/19 00:54:31;;;;;;;2.35;1.30;;;;;;;6.66;64.80;94865.38;5066527;28;20035;-71
2022/09/19 00:56:57;;;;;;;2.40;1.60;;;;;;;6.61;65.17;94872.59;5084825;28;20035;-72
2022/09/19 00:59:23;;;;;;;2.50;1.77;;;;;;;6.62;64.53;94871.66;5050434;28;20036;-72
2022/09/19 01:01:48;;;;;;;3.72;1.90;;;;;;;6.44;65.42;94873.69;5070067;28;20028;-72
2022/09/19 01:04:15;;;;;;;2.63;1.70;;;;;;;6.37;65.70;94881.94;5068276;28;20410;-71
2022/09/19 01:07:14;;;;;;;2.80;1.60;;;;;;;6.33;66.04;94880.50;5085547;28;20033;-72
2022/09/19 01:09:57;;;;;;;2.40;1.70;;;;;;;6.22;66.43;94883.75;5063602;28;20340;-71
2022/09/19 01:12:46;;;;;;;4.35;2.05;;;;;;;6.17;66.94;94878.06;5069680;28;20028;-72
2022/09/19 01:15:19;;;;;;;4.93;1.80;;;;;;;6.19;67.00;94877.03;5084904;28;20058;-71
2022/09/19 01:17:52;;;;;;;2.05;1.40;;;;;;;6.19;66.56;94877.03;5057758;28;20128;-72
2022/09/19 01:20:55;;;;;;;3.35;1.63;;;;;;;6.12;67.03;94882.69;5069186;28;20516;-71
2022/09/19 01:23:42;;;;;;;2.00;1.48;;;;;;;6.09;67.26;94878.56;5083750;28;20025;-72
2022/09/19 01:26:42;;;;;;;4.30;1.63;;;;;;;6.03;67.35;94876.38;5087564;28;20032;-71
2022/09/19 01:29:12;;;;;;;2.40;1.70;;;;;;;6.06;67.63;94871.00;5065995;28;20033;-72
2022/09/19 01:31:40;;;;;;;2.10;1.50;;;;;;;6.05;67.58;94861.63;5049365;28;20494;-72
2022/09/19 01:34:12;;;;;;;2.22;1.35;;;;;;;6.05;67.33;94861.63;5084988;28;20119;-72
2022/09/19 01:36:52;;;;;;;2.65;1.25;;;;;;;6.09;67.05;94862.25;5068891;28;20020;-72
2022/09/19 01:39:21;;;;;;;2.60;1.20;;;;;;;5.99;67.40;94828.47;5066715;28;20063;-71
2022/09/19 01:41:51;;;;;;;2.47;1.40;;;;;;;6.06;67.06;94850.38;5068624;28;20044;-72
2022/09/19 01:44:18;;;;;;;1.80;1.30;;;;;;;6.10;66.70;94857.00;5052412;28;20032;-72
2022/09/19 01:47:05;;;;;;;2.30;1.10;;;;;;;6.00;66.42;94854.19;5083341;28;20105;-71
2022/09/19 01:49:55;;;;;;;1.38;0.98;;;;;;;6.10;66.22;94841.53;5083946;28;20036;-72
2022/09/19 01:52:23;;;;;;;1.50;0.98;;;;;;;6.23;65.44;94842.38;5087038;28;20085;-71
2022/09/19 01:54:55;;;;;;;3.75;1.10;;;;;;;6.22;65.43;94845.06;5086571;28;20028;-71
2022/09/19 01:57:31;;;;;;;2.88;1.40;;;;;;;6.33;65.15;94836.63;5085657;28;20111;-71
2022/09/19 02:00:13;;;;;;;1.40;0.90;;;;;;;6.32;64.63;94822.88;5084403;28;20554;-71
2022/09/19 02:03:05;;;;;;;2.45;0.95;;;;;;;6.39;64.80;94831.88;5080778;28;20115;-72
2022/09/19 02:05:41;;;;;;;1.38;0.90;;;;;;;6.31;65.42;94828.16;5069584;28;20039;-72
2022/09/19 02:08:16;;;;;;;2.05;1.08;;;;;;;6.28;65.45;94820.63;5078079;28;20066;-72
2022/09/19 02:10:46;;;;;;;1.85;1.08;;;;;;;6.36;64.98;94832.09;5081087;28;20118;-72
2022/09/19 02:13:12;;;;;;;3.97;1.20;;;;;;;6.54;64.35;94829.22;5085847;28;20182;-71
2022/09/19 02:15:37;;;;;;;1.38;0.93;;;;;;;6.62;63.86;94832.09;5051707;28;20594;-71
2022/09/19 02:18:13;;;;;;;3.20;1.10;;;;;;;6.48;64.40;94838.19;5049996;28;20028;-71
2022/09/19 02:20:40;;;;;;;2.05;1.10;;;;;;;6.50;64.86;94841.50;5068532;28;20425;-71
2022/09/19 02:23:36;;;;;;;1.88;1.08;;;;;;;6.46;65.29;94835.72;5067720;28;20032;-71
2022/09/19 02:26:03;;;;;;;2.45;1.10;;;;;;;6.48;65.79;94830.44;5077055;28;20064;-72
2022/09/19 02:28:33;;;;;;;1.58;1.13;;;;;;;6.56;65.26;94828.19;5066748;28;20020;-72
2022/09/19 02:30:59;;;;;;;2.58;1.10;;;;;;;6.56;64.48;94827.34;5086536;28;20032;-72
2022/09/19 02:33:24;;;;;;;2.40;0.90;;;;;;;6.52;64.50;94826.75;5071893;28;20035;-72
2022/09/19 02:36:02;;;;;;;1.40;0.90;;;;;;;6.60;63.39;94824.47;5089753;28;20467;-72
2022/09/19 02:38:47;;;;;;;1.48;0.80;;;;;;;6.66;62.55;94828.41;5070848;28;20590;-71
2022/09/19 02:41:31;;;;;;;1.30;0.85;;;;;;;6.60;62.53;94818.47;5073943;28;20040;-72
2022/09/19 02:44:10;;;;;;;2.10;1.00;;;;;;;6.53;62.97;94820.63;5074067;28;20075;-71
2022/09/19 02:46:39;;;;;;;1.45;0.80;;;;;;;6.54;63.24;94819.69;5073540;28;20036;-72
2022/09/19 02:49:12;;;;;;;1.30;0.80;;;;;;;6.66;63.00;94825.81;5054547;28;20059;-71
2022/09/19 02:51:58;;;;;;;1.50;0.90;;;;;;;6.64;63.10;94820.75;5090665;28;20202;-71
2022/09/19 02:54:29;;;;;;;1.50;0.98;;;;;;;6.71;63.34;94822.00;5071318;28;20404;-72
2022/09/19 02:56:56;;;;;;;;;;;;;;;6.69;63.70;94828.19;5089611;28;20036;-72
2022/09/19 02:59:24;;;;;;;1.40;0.70;;;;;;;6.61;63.67;94826.13;5086249;28;20445;-72
2022/09/19 03:01:53;;;;;;;1.25;0.70;;;;;;;6.61;63.74;94826.13;5052092;28;20055;-72
2022/09/19 03:04:21;;;;;;;2.15;0.90;;;;;;;6.59;63.37;94832.31;5069541;28;20502;-72
2022/09/19 03:06:53;;;;;;;1.58;0.93;;;;;;;6.57;63.82;94832.41;5088550;28;20024;-72
2022/09/19 03:09:21;;;;;;;1.42;0.77;;;;;;;6.56;64.39;94830.75;5068328;28;20028;-71
2022/09/19 03:11:51;;;;;;;1.88;1.00;;;;;;;6.49;63.83;94822.59;5068686;28;20574;-72
2022/09/19 03:14:17;;;;;;;3.38;0.90;;;;;;;6.43;64.38;94817.00;5070121;28;20390;-72
2022/09/19 03:16:43;;;;;;;1.40;0.90;;;;;;;6.35;64.13;94819.28;5054307;28;20032;-72
2022/09/19 03:19:09;;;;;;;1.60;0.80;;;;;;;6.29;64.25;94817.09;5068956;28;20118;-71
2022/09/19 03:21:36;;;;;;;1.90;1.00;;;;;;;6.14;64.66;94826.69;5089034;28;20115;-71
2022/09/19 03:24:02;;;;;;;2.47;1.10;;;;;;;6.11;65.35;94838.03;5083912;28;20032;-72
2022/09/19 03:26:30;;;;;;;1.70;0.93;;;;;;;6.22;65.08;94842.47;5071793;28;20036;-72
2022/09/19 03:28:59;;;;;;;2.17;1.10;;;;;;;6.14;64.90;94830.06;5084500;28;20581;-72
2022/09/19 03:31:25;;;;;;;2.33;1.33;;;;;;;6.18;65.40;94839.25;5052147;28;20122;-72
2022/09/19 03:33:51;;;;;;;1.50;1.00;;;;;;;6.22;65.34;94843.31;5066993;28;20157;-72
2022/09/19 03:36:17;;;;;;;1.98;1.10;;;;;;;6.23;64.96;94846.72;5085972;28;20516;-72
2022/09/19 03:38:44;;;;;;;1.65;1.00;;;;;;;6.21;65.25;94833.94;5066592;28;20048;-72
2022/09/19 03:41:14;;;;;;;1.95;1.10;;;;;;;6.17;64.98;94839.38;5072510;28;20028;-72
2022/09/19 03:43:42;;;;;;;2.80;1.20;;;;;;;6.13;65.33;94845.63;5067725;28;20405;-72
2022/09/19 03:46:10;;;;;;;1.65;1.10;;;;;;;6.08;65.45;94835.66;5069606;28;20040;-72
2022/09/19 03:48:36;;;;;;;1.92;1.30;;;;;;;6.09;65.49;94829.53;5085324;28;20047;-72
2022/09/19 03:51:01;;;;;;;2.10;1.20;;;;;;;6.01;65.61;94817.13;5086800;28;20059;-72
2022/09/19 03:53:27;;;;;;;2.42;1.33;;;;;;;5.99;66.11;94820.75;5069435;28;20020;-72
2022/09/19 03:55:54;;;;;;;1.70;1.10;;;;;;;5.83;65.79;94811.41;5071680;28;20044;-72
2022/09/19 03:58:20;;;;;;;1.60;1.10;;;;;;;5.88;66.18;94816.28;5051543;28;20042;-72
2022/09/19 04:00:45;;;;;;;1.13;0.80;;;;;;;5.93;65.96;94808.22;5087124;28;20046;-72
2022/09/19 04:03:11;;;;;;;1.83;1.25;;;;;;;5.79;66.38;94802.22;5054167;28;20020;-72
2022/09/19 04:05:37;;;;;;;3.22;0.90;;;;;;;5.80;66.75;94808.19;5087866;28;20089;-72
2022/09/19 04:08:03;;;;;;;1.83;1.10;;;;;;;5.71;67.10;94794.16;5085600;28;20075;-72
2022/09/19 04:10:29;;;;;;;1.60;1.00;;;;;;;5.75;66.91;94798.16;5069761;28;20596;-72
2022/09/19 04:12:56;;;;;;;1.90;1.20;;;;;;;5.68;67.23;94798.66;5050196;28;20027;-72
2022/09/19 04:15:21;;;;;;;2.58;1.10;;;;;;;5.70;67.46;94799.38;5068636;28;20032;-72
2022/09/19 04:17:47;;;;;;;1.80;1.15;;;;;;;5.71;67.47;94806.19;5085366;28;20093;-72
2022/09/19 04:20:12;;;;;;;2.00;1.23;;;;;;;5.59;67.62;94797.50;5084032;28;20020;-72
2022/09/19 04:22:38;;;;;;;1.45;0.90;;;;;;;5.59;67.80;94794.91;5066139;28;20040;-72
2022/09/19 04:25:05;;;;;;;8.82;1.10;;;;;;;5.66;67.62;94803.94;5070016;28;20052;-73
2022/09/19 04:27:30;;;;;;;1.60;1.10;;;;;;;5.86;66.27;94806.97;5079092;28;20111;-72
2022/09/19 04:29:56;;;;;;;3.35;1.70;;;;;;;5.88;66.62;94815.41;5051800;28;20485;-72
2022/09/19 04:32:22;;;;;;;1.70;1.10;;;;;;;5.91;66.47;94810.91;5068146;28;20036;-73
2022/09/19 04:34:49;;;;;;;1.85;1.20;;;;;;;5.91;66.35;94810.91;5069356;28;20050;-73
2022/09/19 04:37:15;;;;;;;1.80;1.20;;;;;;;5.88;66.79;94815.41;5047810;28;20059;-72
2022/09/19 04:39:41;;;;;;;2.67;1.20;;;;;;;5.92;66.68;94817.72;5064699;28;20029;-73
2022/09/19 04:42:06;;;;;;;3.40;1.70;;;;;;;5.89;66.22;94802.44;5080658;28;20652;-73
2022/09/19 04:44:31;;;;;;;3.13;1.73;;;;;;;5.85;67.17;94810.47;5085461;28;20024;-72
2022/09/19 04:46:57;;;;;;;2.33;1.77;;;;;;;5.55;67.79;94802.03;5077785;28;20105;-72
2022/09/19 04:49:22;;;;;;;2.75;1.80;;;;;;;5.68;67.93;94825.25;5079626;28;21245;-72
2022/09/19 04:51:48;;;;;;;2.83;1.88;;;;;;;5.74;67.39;94813.72;5074752;28;20028;-73
2022/09/19 04:54:14;;;;;;;4.30;1.92;;;;;;;5.74;67.80;94813.72;5051949;28;20456;-73
2022/09/19 04:56:43;;;;;;;4.00;2.10;;;;;;;5.71;67.82;94804.47;5066846;28;20025;-73
2022/09/19 04:59:09;;;;;;;3.30;2.05;;;;;;;5.74;68.12;94814.56;5076750;28;20047;-73
2022/09/19 05:01:35;;;;;;;2.80;2.10;;;;;;;5.72;68.26;94813.03;5084323;28;20036;-73
2022/09/19 05:04:03;;;;;;;3.67;1.67;;;;;;;5.70;68.48;94813.09;5087563;28;20062;-73
2022/09/19 05:06:29;;;;;;;2.72;1.98;;;;;;;5.77;68.20;94819.53;5083196;28;20490;-73
2022/09/19 05:08:57;;;;;;;4.55;2.08;;;;;;;5.66;69.03;94814.22;5079665;28;20039;-73
2022/09/19 05:11:23;;;;;;;3.58;2.03;;;;;;;5.31;69.46;94806.94;5067702;28;20035;-73
2022/09/19 05:13:49;;;;;;;2.90;2.20;;;;;;;5.40;68.74;94802.16;5082781;28;20405;-73
2022/09/19 05:16:15;;;;;;;4.95;3.10;;;;;;;5.46;68.79;94810.34;5083630;28;20035;-72
2022/09/19 05:18:41;;;;;;;4.72;2.80;;;;;;;5.32;69.57;94813.78;5064912;28;20119;-73
2022/09/19 05:21:13;;;;;;;4.18;2.80;;;;;;;5.41;70.06;94812.38;5080047;28;20036;-73
2022/09/19 05:23:39;;;;;;;4.38;3.30;;;;;;;5.42;70.36;94808.88;5068610;28;20024;-73
2022/09/19 05:26:09;;;;;;;6.32;4.53;;;;;;;5.51;70.56;94812.59;5084598;28;20040;-74
2022/09/19 05:28:35;;;;;;;5.07;3.50;;;;;;;5.58;71.00;94813.88;5083205;28;20039;-73
2022/09/19 05:31:05;;;;;;;5.13;3.75;;;;;;;5.74;70.28;94822.31;5051493;28;20077;-73
2022/09/19 05:33:31;;;;;;;4.43;3.67;;;;;;;5.95;69.29;94824.47;5050202;28;20406;-73
2022/09/19 05:35:59;;;;;;;4.97;3.15;;;;;;;6.00;69.12;94815.50;5053051;28;20127;-73
2022/09/19 05:38:26;;;;;;;3.75;3.13;;;;;;;6.23;69.04;94828.66;5080487;28;20049;-73
2022/09/19 05:40:54;;;;;;;7.40;3.17;;;;;;;6.34;69.46;94827.94;5084838;28;20029;-73
2022/09/19 05:43:21;;;;;;;7.93;4.10;;;;;;;6.69;68.49;94839.34;5069730;28;20020;-73
2022/09/19 05:45:46;;;;;;;8.88;5.05;;;;;;;6.74;69.40;94825.28;5065875;28;20433;-74
2022/09/19 05:48:12;;;;;;;10.40;5.43;;;;;;;7.02;68.33;94824.22;5083394;28;20035;-73
2022/09/19 05:50:37;;;;;;;11.98;5.05;;;;;;;7.29;67.54;94837.00;5064998;28;20108;-73
2022/09/19 05:55:47;;;;;;;6.05;4.18;;;;;;;7.86;66.03;94828.66;5085069;28;20105;-73
2022/09/19 05:58:13;;;;;;;7.88;4.15;;;;;;;7.98;64.93;94829.53;5084772;28;20028;-73
2022/09/19 06:00:38;;;;;;;6.38;4.30;;;;;;;8.07;65.14;94826.28;5051852;28;20028;-73
2022/09/19 06:03:05;;;;;;;6.45;4.70;;;;;;;8.23;64.15;94808.69;5068629;28;20032;-73
2022/09/19 06:05:36;;;;;;;7.88;4.30;;;;;;;8.56;64.84;94819.31;5052201;28;20452;-73
2022/09/19 06:08:04;;;;;;;;;;;;;;;8.75;62.65;94814.38;5087717;28;20043;-73
2022/09/19 06:10:32;;;;;;;4.88;3.78;;;;;;;8.92;62.33;94813.09;5089191;28;19965;-73
2022/09/19 06:12:57;;;;;;;6.65;3.60;;;;;;;9.14;61.52;94820.88;5089882;28;20024;-73
2022/09/19 06:15:22;;;;;;;4.95;3.50;;;;;;;9.20;60.86;94809.22;5083148;28;20100;-73
2022/09/19 06:17:57;;;;;;;5.55;3.47;;;;;;;9.28;59.92;94808.63;5089093;28;20036;-73
2022/09/19 06:20:23;;;;;;;5.70;3.80;;;;;;;9.42;61.18;94807.53;5055361;28;20028;-73
2022/09/19 06:22:50;;;;;;;4.25;3.20;;;;;;;9.63;59.89;94817.03;5072526;28;20043;-73
2022/09/19 06:25:16;;;;;;;5.55;3.10;;;;;;;9.72;59.33;94817.25;5088025;28;20028;-73
2022/09/19 06:27:44;;;;;;;4.53;3.00;;;;;;;9.78;58.55;94820.22;5067772;28;20349;-73
2022/09/19 06:30:10;;;;;;;3.83;3.05;;;;;;;9.84;59.08;94814.53;5057722;28;20413;-73
2022/09/19 06:32:38;;;;;;;4.10;3.13;;;;;;;9.95;59.64;94823.22;5089646;28;20058;-73
2022/09/19 06:35:04;;;;;;;4.10;3.00;;;;;;;9.94;58.06;94830.16;5055032;28;20028;-72
2022/09/19 06:37:30;;;;;;;5.03;3.05;;;;;;;10.05;57.44;94829.31;5088321;28;20044;-73
2022/09/19 06:39:56;;;;;;;5.35;3.63;;;;;;;10.10;57.79;94828.94;5071339;28;20040;-73
2022/09/19 06:42:21;;;;;;;5.30;3.35;;;;;;;10.21;56.84;94824.53;5055917;28;20032;-73
2022/09/19 06:44:47;;;;;;;4.07;2.85;;;;;;;10.14;57.96;94810.41;5071148;28;20032;-72
2022/09/19 06:47:13;;;;;;;5.18;3.20;;;;;;;10.48;58.28;94820.69;5069265;28;20418;-73
2022/09/19 06:49:38;;;;;;;4.80;3.15;;;;;;;10.54;57.64;94820.16;5067525;28;20033;-73
2022/09/19 06:52:04;;;;;;;5.07;2.95;;;;;;;10.84;57.19;94821.19;5053414;28;20063;-73
2022/09/19 06:54:29;;;;;;;8.02;3.05;;;;;;;10.99;55.42;94817.28;5068668;28;20128;-72
2022/09/19 06:56:55;;;;;;;4.28;2.80;;;;;;;11.00;55.30;94813.72;5087606;28;20506;-73
2022/09/19 06:59:21;;;;;;;4.15;3.15;;;;;;;11.09;55.63;94807.75;5085556;28;20066;-73
2022/09/19 07:01:47;;;;;;;5.47;3.05;;;;;;;11.25;55.26;94807.25;5071471;28;20501;-73
2022/09/19 07:04:12;;;;;;;3.63;2.85;;;;;;;11.40;54.58;94810.34;5084430;28;20028;-73
2022/09/19 07:06:38;;;;;;;7.20;2.67;;;;;;;11.59;54.93;94812.19;5088168;28;20031;-73
2022/09/19 07:09:04;;;;;;;5.18;2.88;;;;;;;11.82;54.81;94804.97;5085694;28;20406;-73
2022/09/19 07:11:30;;;;;;;5.03;2.78;;;;;;;12.00;54.56;94807.75;5088942;28;20110;-73
2022/09/19 07:13:55;;;;;;;4.72;2.90;;;;;;;12.21;53.66;94799.81;5088843;28;20027;-74
2022/09/19 07:16:21;;;;;;;4.45;2.97;;;;;;;12.34;53.28;94795.16;5088503;28;20036;-73
2022/09/19 07:18:46;;;;;;;4.55;2.90;;;;;;;12.49;53.16;94785.94;5065231;28;20035;-73
2022/09/19 07:21:12;;;;;;;4.55;2.70;;;;;;;12.69;52.37;94783.31;5069089;28;20093;-73
2022/09/19 07:23:37;;;;;;;13.70;8.27;;;;;;;12.71;50.51;94779.59;5071369;28;20032;-73
2022/09/19 07:26:03;;;;;;;17.88;8.05;;;;;;;12.53;50.67;94784.69;5068831;28;20028;-73
2022/09/19 07:28:28;;;;;;;8.77;4.07;;;;;;;12.37;51.04;94781.84;5082879;28;20437;-73
2022/09/19 07:30:56;;;;;;;3.75;2.10;;;;;;;12.52;51.67;94777.84;5083940;28;20529;-73
2022/09/19 07:33:22;;;;;;;4.70;1.60;;;;;;;12.77;50.77;94780.81;5083433;28;20036;-73
2022/09/19 07:35:48;;;;;;;3.45;1.88;;;;;;;12.79;50.55;94778.91;5088293;28;20042;-73
2022/09/19 07:38:15;;;;;;;3.28;2.17;;;;;;;12.92;51.27;94770.75;5065232;28;20071;-73
2022/09/19 07:40:40;;;;;;;5.00;2.70;;;;;;;12.87;50.07;94784.22;5087438;28;20028;-72
2022/09/19 07:43:06;;;;;;;5.50;3.63;;;;;;;12.72;50.98;94765.59;5052568;28;20028;-72
2022/09/19 07:45:33;;;;;;;7.13;3.30;;;;;;;13.02;50.93;94776.75;5088316;28;20031;-72
2022/09/19 07:47:58;;;;;;;4.05;2.50;;;;;;;13.14;50.05;94767.78;5068527;28;20120;-73
2022/09/19 07:50:24;;;;;;;3.60;2.28;;;;;;;13.13;49.74;94760.13;5088513;28;20428;-72
2022/09/19 07:52:59;;;;;;;7.55;2.58;;;;;;;13.36;48.73;94765.78;5070291;28;20032;-72
2022/09/19 07:55:25;;;;;;;3.53;1.90;;;;;;;13.38;48.07;94769.91;5087586;28;20020;-72
2022/09/19 07:57:55;;;;;;;7.45;2.20;;;;;;;13.26;47.80;94752.81;5086714;28;20032;-72
2022/09/19 08:00:22;;;;;;;3.90;2.37;;;;;;;13.38;49.20;94759.47;5087425;28;20082;-72
2022/09/19 08:03:01;;;;;;;3.72;2.10;;;;;;;13.47;48.88;94751.75;5068607;28;20103;-72
2022/09/19 08:05:28;;;;;;;4.63;2.00;;;;;;;13.66;47.96;94754.22;5053843;28;20524;-72
2022/09/19 08:07:53;;;;;;;3.38;1.80;;;;;;;13.68;47.96;94760.13;5084503;28;20048;-72
2022/09/19 08:10:19;;;;;;;4.60;1.90;;;;;;;13.85;47.44;94761.13;5086711;28;20545;-73
2022/09/19 08:12:45;;;;;;;2.72;1.90;;;;;;;14.03;46.88;94758.50;5069489;28;20108;-73
2022/09/19 08:15:15;;;;;;;3.53;1.95;;;;;;;14.17;47.36;94744.91;5087340;28;20405;-72
2022/09/19 08:17:59;;;;;;;2.42;1.50;;;;;;;14.38;46.19;94746.41;5084147;28;20040;-73
2022/09/19 08:20:28;;;;;;;3.47;1.77;;;;;;;14.56;45.35;94741.16;5086332;28;20566;-72
2022/09/19 08:22:58;;;;;;;3.50;1.70;;;;;;;14.65;44.48;94741.03;5070192;28;20113;-72
2022/09/19 08:25:27;;;;;;;3.58;1.65;;;;;;;14.74;44.49;94724.44;5050596;28;20127;-72
2022/09/19 08:27:53;;;;;;;3.03;1.77;;;;;;;14.90;44.62;94735.97;5066849;28;20051;-72
2022/09/19 08:30:19;;;;;;;4.25;2.40;;;;;;;15.00;44.59;94730.63;5086646;28;20016;-73
2022/09/19 08:32:45;;;;;;;3.42;1.60;;;;;;;15.11;43.73;94728.56;5069702;28;20031;-72
2022/09/19 08:35:11;;;;;;;2.85;1.60;;;;;;;15.14;43.16;94724.81;5087198;28;20075;-72
2022/09/19 08:37:36;;;;;;;6.75;1.90;;;;;;;15.16;43.40;94725.47;5084940;28;20134;-73
2022/09/19 08:40:19;;;;;;;3.55;1.77;;;;;;;15.27;43.91;94732.25;5087324;28;20024;-73
2022/09/19 08:43:10;;;;;;;2.58;1.60;;;;;;;15.48;43.63;94731.81;5085513;28;20032;-73
2022/09/19 08:45:36;;;;;;;3.60;1.75;;;;;;;15.55;44.01;94724.97;5087586;28;21485;-72
2022/09/19 08:48:03;;;;;;;3.42;1.73;;;;;;;15.66;43.03;94727.28;5084805;28;20085;-73
2022/09/19 08:50:30;;;;;;;3.08;1.63;;;;;;;15.77;43.00;94713.91;5086249;28;20028;-72
2022/09/19 08:52:57;;;;;;;3.15;1.77;;;;;;;15.86;42.47;94722.59;5069780;28;20028;-72
2022/09/19 08:55:24;;;;;;;2.28;1.52;;;;;;;15.78;41.73;94714.72;5070372;28;20036;-73
2022/09/19 08:58:00;;;;;;;3.67;1.70;;;;;;;15.85;42.31;94710.47;5050033;28;20028;-72
2022/09/19 09:00:30;;;;;;;3.50;1.70;;;;;;;15.91;41.87;94716.84;5085941;28;20036;-73
2022/09/19 09:03:03;;;;;;;3.13;1.70;;;;;;;16.00;41.72;94729.81;5070028;28;21075;-72
2022/09/19 09:05:44;;;;;;;4.82;1.83;;;;;;;16.03;41.94;94716.41;5051807;28;20032;-73
2022/09/19 09:08:28;;;;;;;4.90;1.90;;;;;;;16.12;41.92;94719.03;5066690;28;20035;-73
2022/09/19 09:11:14;;;;;;;3.38;1.95;;;;;;;16.23;41.04;94714.28;5087541;28;20493;-72
2022/09/19 09:14:02;;;;;;;4.18;1.90;;;;;;;16.30;40.76;94714.44;5080926;28;20044;-73
2022/09/19 09:16:49;;;;;;;3.63;1.92;;;;;;;16.35;40.70;94720.00;5066424;28;20033;-72
2022/09/19 09:19:17;;;;;;;2.08;1.42;;;;;;;16.42;40.43;94720.97;5082756;28;20024;-72
2022/09/19 09:22:10;;;;;;;4.18;1.85;;;;;;;16.49;38.86;94724.59;5087230;28;20047;-72
2022/09/19 09:24:38;;;;;;;5.57;1.95;;;;;;;16.42;37.77;94723.59;5086397;28;20470;-73
2022/09/19 09:27:08;;;;;;;3.88;2.13;;;;;;;16.35;38.23;94714.75;5086467;28;20043;-72
2022/09/19 09:29:38;;;;;;;6.00;2.70;;;;;;;16.39;39.56;94708.22;5082491;28;20031;-72
2022/09/19 09:32:32;;;;;;;7.20;2.80;;;;;;;16.44;38.94;94699.88;5050047;28;20043;-72
2022/09/19 09:35:29;;;;;;;4.00;2.30;;;;;;;16.34;39.88;94689.53;5070199;28;20093;-73
2022/09/19 09:38:18;;;;;;;;;;;;;;;16.52;38.43;94697.22;5069588;28;20067;-72
2022/09/19 09:43:55;;;;;;;;;;;;;;;16.66;36.99;94674.72;5087024;28;19955;-73
2022/09/19 09:46:24;;;;;;;;;;;;;;;16.73;36.15;94663.41;5086601;28;20061;-73
2022/09/19 09:48:53;;;;;;;;;;;;;;;16.87;37.33;94664.53;5080810;28;20014;-72
2022/09/19 09:51:21;;;;;;;;;;;;;;;16.89;37.46;94657.31;5068012;28;20014;-73
2022/09/19 09:53:49;;;;;;;;;;;;;;;16.97;36.14;94659.09;5079114;28;20022;-72
2022/09/19 09:56:26;;;;;;;;;;;;;;;16.95;36.98;94655.84;5086025;28;19923;-73
2022/09/19 09:58:52;;;;;;;;;;;;;;;17.05;36.83;94660.88;5082180;28;20062;-73
2022/09/19 10:04:11;;;;;;;;;;;;;;;17.23;34.30;94653.56;5084616;28;19947;-72
2022/09/19 10:06:55;;;;;;;;;;;;;;;17.25;33.50;94653.41;5084444;28;19916;-73
2022/09/19 10:09:29;;;;;;;;;;;;;;;17.00;32.29;94657.97;5080536;28;19942;-73
2022/09/19 10:12:15;;;;;;;;;;;;;;;17.19;33.96;94652.28;5084173;28;19916;-72
2022/09/19 10:14:40;;;;;;;;;;;;;;;17.32;33.31;94639.41;5083309;28;19912;-72
2022/09/19 10:17:07;;;;;;;;;;;;;;;17.42;34.06;94637.41;5067556;28;25119;-72
2022/09/19 10:19:36;;;;;;;;;;;;;;;17.50;34.53;94628.66;5080324;28;20018;-72
2022/09/19 10:22:02;;;;;;;;;;;;;;;17.64;34.95;94629.72;5084176;28;24071;-73
2022/09/19 10:24:45;;;;;;;;;;;;;;;17.70;34.33;94630.81;5084353;28;20274;-73
2022/09/19 10:27:15;;;;;;;;;;;;;;;17.75;34.08;94631.94;5084444;28;19944;-72
2022/09/19 10:29:57;;;;;;;;;;;;;;;17.83;33.54;94631.91;5081988;28;20378;-73
2022/09/19 10:32:24;;;;;;;;;;;;;;;17.92;32.25;94634.47;5083933;28;19966;-72
2022/09/19 10:34:50;;;;;;;;;;;;;;;17.82;33.02;94625.00;5080885;28;20079;-73
2022/09/19 10:37:16;;;;;;;;;;;;;;;17.85;33.44;94621.22;5085882;28;20455;-72
2022/09/19 10:39:44;;;;;;;;;;;;;;;17.87;34.37;94608.72;5081359;28;19923;-73
2022/09/19 10:42:38;;;;;;;;;;;;;;;17.94;33.99;94603.56;5084703;28;20416;-73
2022/09/19 10:45:16;;;;;;;;;;;;;;;18.00;34.31;94600.25;5075910;28;20428;-72
2022/09/19 10:47:42;;;;;;;;;;;;;;;18.08;34.06;94597.56;5065607;28;21382;-73
2022/09/19 10:50:11;;;;;;;;;;;;;;;18.01;32.51;94589.53;5083447;28;19978;-72
2022/09/19 10:52:39;;;;;;;;;;;;;;;18.08;33.18;94594.91;5083964;28;20195;-72
2022/09/19 10:55:09;;;;;;;;;;;;;;;18.13;32.44;94587.28;5089443;28;20477;-73
2022/09/19 10:57:40;;;;;;;;;;;;;;;18.16;30.63;94575.59;5085779;28;25047;-72
2022/09/19 11:00:14;;;;;;;;;;;;;;;18.15;31.00;94574.78;5086736;28;20014;-73
2022/09/19 11:02:39;;;;;;;;;;;;;;;18.25;30.78;94566.66;5086627;28;19956;-73
2022/09/19 11:05:04;;;;;;;;;;;;;;;18.31;31.41;94558.88;5088610;28;19970;-73
2022/09/19 11:07:41;;;;;;;;;;;;;;;18.44;31.93;94563.50;5087284;28;20308;-73
2022/09/19 11:10:26;;;;;;;;;;;;;;;18.52;31.67;94560.75;5068218;28;20367;-73
2022/09/19 11:13:04;;;;;;;;;;;;;;;18.61;32.03;94553.63;5087921;28;19928;-73
2022/09/19 11:15:31;;;;;;;;;;;;;;;18.74;32.33;94553.78;5066325;28;19916;-73
2022/09/19 11:18:00;;;;;;;;;;;;;;;18.74;31.14;94551.16;5084517;28;19958;-73
2022/09/19 11:20:38;;;;;;;;;;;;;;;18.79;30.89;94539.28;5086473;28;20371;-73
2022/09/19 11:23:16;;;;;;;;;;;;;;;18.79;31.52;94537.47;5086683;28;24078;-74
2022/09/19 11:25:58;;;;;;;;;;;;;;;18.86;30.69;94542.78;5088850;28;25140;-73
2022/09/19 11:28:43;;;;;;;;;;;;;;;18.85;30.48;94539.34;5085548;28;20044;-73
2022/09/19 11:31:20;;;;;;;;;;;;;;;18.87;31.08;94536.53;5088665;28;20162;-73
2022/09/19 11:33:58;;;;;;;;;;;;;;;18.90;30.28;94525.66;5087071;28;20127;-73
2022/09/19 11:36:24;;;;;;;;;;;;;;;18.89;30.64;94532.72;5086857;28;19927;-73
2022/09/19 11:39:15;;;;;;;;;;;;;;;18.92;29.62;94528.91;5084098;28;20011;-73
2022/09/19 11:41:59;;;;;;;;;;;;;;;19.00;29.62;94525.34;5085480;28;19916;-73
2022/09/19 11:44:31;;;;;;;;;;;;;;;19.02;30.20;94521.53;5086363;28;19952;-73
2022/09/19 11:47:14;;;;;;;;;;;;;;;19.09;30.90;94511.09;5087823;28;24078;-73
2022/09/19 11:49:59;;;;;;;;;;;;;;;19.20;30.11;94506.13;5082495;28;20442;-73
2022/09/19 11:52:25;;;;;;;;;;;;;;;19.26;30.65;94514.28;5087454;28;20051;-73
2022/09/19 11:54:53;;;;;;;;;;;;;;;19.31;30.02;94511.91;5083866;28;25140;-73
2022/09/19 11:57:54;;;;;;;;;;;;;;;19.32;29.15;94505.63;5087976;28;19916;-74
2022/09/19 12:00:20;;;;;;;;;;;;;;;19.35;29.27;94498.16;5063713;28;20038;-73
2022/09/19 12:03:04;;;;;;;;;;;;;;;19.39;28.89;94506.53;5077810;28;19920;-73
2022/09/19 12:05:42;;;;;;;;;;;;;;;19.43;27.71;94513.03;5088171;28;20116;-73
2022/09/19 12:08:28;;;;;;;;;;;;;;;19.43;28.27;94510.41;5084257;28;19947;-73
2022/09/19 12:11:13;;;;;;;;;;;;;;;19.49;27.88;94499.09;5088580;28;19975;-73
2022/09/19 12:13:42;;;;;;;;;;;;;;;19.54;27.40;94499.34;5064500;28;24110;-74
2022/09/19 12:16:10;;;;;;;;;;;;;;;19.57;27.08;94492.88;5087215;28;19967;-73
2022/09/19 12:18:50;;;;;;;;;;;;;;;19.63;28.02;94490.28;5083426;28;20232;-73